createdAt,value
2022-11-24T00:00:38.112Z,12.77
2022-11-24T00:03:05.716Z,10.10
2022-11-24T00:05:35.943Z,5.93
2022-11-24T00:08:03.652Z,11.52
2022-11-24T00:10:31.144Z,10.70
2022-11-24T00:12:58.764Z,9.50
2022-11-24T00:15:26.358Z,13.32
2022-11-24T00:17:55.414Z,15.68
2022-11-24T00:20:22.946Z,11.27
2022-11-24T00:22:50.455Z,8.65
2022-11-24T00:25:18.170Z,10.52
2022-11-24T00:27:45.727Z,14.70
2022-11-24T00:30:13.656Z,14.57
2022-11-24T00:32:41.138Z,10.23
2022-11-24T00:35:10.089Z,12.57
2022-11-24T00:37:37.582Z,14.15
2022-11-24T00:40:06.080Z,8.40
2022-11-24T00:42:33.697Z,13.45
2022-11-24T00:45:12.912Z,11.93
2022-11-24T00:47:41.873Z,12.23
2022-11-24T00:50:11.169Z,9.27
2022-11-24T00:52:38.692Z,14.27
2022-11-24T00:55:06.674Z,12.45
2022-11-24T00:57:35.858Z,8.95
2022-11-24T01:00:03.598Z,12.45
2022-11-24T01:02:31.244Z,9.98
2022-11-24T01:04:58.767Z,15.52
2022-11-24T01:07:27.762Z,15.05
2022-11-24T01:09:55.335Z,13.80
2022-11-24T01:12:22.851Z,11.43
2022-11-24T01:14:50.377Z,11.85
2022-11-24T01:17:18.476Z,11.00
2022-11-24T01:19:46.096Z,12.35
2022-11-24T01:22:13.690Z,14.35
2022-11-24T01:24:42.702Z,10.55
2022-11-24T01:27:10.263Z,9.75
2022-11-24T01:29:37.806Z,13.20
2022-11-24T01:32:05.600Z,14.30
2022-11-24T01:34:33.338Z,19.88
2022-11-24T01:37:01.352Z,15.85
2022-11-24T01:39:28.804Z,10.75
2022-11-24T01:42:00.782Z,12.75
2022-11-24T01:44:29.577Z,15.02
2022-11-24T01:46:59.373Z,13.25
2022-11-24T01:49:31.656Z,10.63
2022-11-24T01:52:01.554Z,15.50
2022-11-24T01:54:30.188Z,14.32
2022-11-24T01:57:01.042Z,13.90
2022-11-24T01:59:28.613Z,9.85
2022-11-24T02:01:56.282Z,13.93
2022-11-24T02:04:26.201Z,15.68
2022-11-24T02:06:53.794Z,10.20
2022-11-24T02:09:23.468Z,15.02
2022-11-24T02:11:51.094Z,14.32
2022-11-24T02:14:20.058Z,8.50
2022-11-24T02:16:49.827Z,12.93
2022-11-24T02:19:22.273Z,10.82
2022-11-24T02:21:49.763Z,13.38
2022-11-24T02:24:19.413Z,16.20
2022-11-24T02:26:48.554Z,16.02
2022-11-24T02:29:16.118Z,11.45
2022-11-24T02:31:46.920Z,13.75
2022-11-24T02:34:14.445Z,16.80
2022-11-24T02:36:42.034Z,20.88
2022-11-24T02:39:11.373Z,11.80
2022-11-24T02:41:38.856Z,11.27
2022-11-24T02:44:07.954Z,10.88
2022-11-24T02:46:35.712Z,16.40
2022-11-24T02:49:03.293Z,14.75
2022-11-24T02:51:31.042Z,13.15
2022-11-24T02:53:58.523Z,18.02
2022-11-24T02:56:26.395Z,15.02
2022-11-24T02:58:54.021Z,13.07
2022-11-24T03:01:23.105Z,11.52
2022-11-24T03:03:50.731Z,16.63
2022-11-24T03:06:18.242Z,9.65
2022-11-24T03:08:45.801Z,13.38
2022-11-24T03:11:13.361Z,15.70
2022-11-24T03:13:40.937Z,10.85
2022-11-24T03:16:09.245Z,10.85
2022-11-24T03:18:38.369Z,16.48
2022-11-24T03:21:06.261Z,12.43
2022-11-24T03:23:33.679Z,12.85
2022-11-24T03:26:08.113Z,11.93
2022-11-24T03:28:35.678Z,12.88
2022-11-24T03:31:03.290Z,12.75
2022-11-24T03:33:30.834Z,12.82
2022-11-24T03:35:59.830Z,13.85
2022-11-24T03:38:27.357Z,20.35
2022-11-24T03:40:54.800Z,13.40
2022-11-24T03:43:22.397Z,18.15
2022-11-24T03:45:49.973Z,13.88
2022-11-24T03:48:17.802Z,13.80
2022-11-24T03:50:52.048Z,13.55
2022-11-24T03:53:21.044Z,13.82
2022-11-24T03:55:48.563Z,20.25
2022-11-24T03:58:16.089Z,18.90
2022-11-24T04:00:43.606Z,17.45
2022-11-24T04:03:11.138Z,15.13
2022-11-24T04:05:38.772Z,19.38
2022-11-24T04:08:06.549Z,21.13
2022-11-24T04:10:36.194Z,17.23
2022-11-24T04:13:03.741Z,14.52
2022-11-24T04:15:31.265Z,16.85
2022-11-24T04:17:58.811Z,20.58
2022-11-24T04:20:26.390Z,17.17
2022-11-24T04:22:53.941Z,15.35
2022-11-24T04:25:21.459Z,16.25
2022-11-24T04:27:52.473Z,15.18
2022-11-24T04:30:20.231Z,15.55
2022-11-24T04:32:47.865Z,18.25
2022-11-24T04:35:15.459Z,16.88
2022-11-24T04:37:43.107Z,27.60
2022-11-24T04:40:11.108Z,20.85
2022-11-24T04:42:38.585Z,19.25
2022-11-24T04:45:08.399Z,16.50
2022-11-24T04:47:35.914Z,20.60
2022-11-24T04:50:03.553Z,18.45
2022-11-24T04:52:31.162Z,12.50
2022-11-24T04:54:58.724Z,17.38
2022-11-24T04:57:26.762Z,19.42
2022-11-24T04:59:54.280Z,13.73
2022-11-24T05:02:23.529Z,15.98
2022-11-24T05:04:51.055Z,19.02
2022-11-24T05:07:19.468Z,18.63
2022-11-24T05:09:58.813Z,16.75
2022-11-24T05:12:27.608Z,12.90
2022-11-24T05:14:55.064Z,19.75
2022-11-24T05:17:24.130Z,17.27
2022-11-24T05:19:51.731Z,16.60
2022-11-24T05:22:19.290Z,15.38
2022-11-24T05:24:46.847Z,23.35
2022-11-24T05:27:14.355Z,14.48
2022-11-24T05:29:41.892Z,16.00
2022-11-24T05:32:09.445Z,22.00
2022-11-24T05:34:38.609Z,17.25
2022-11-24T05:37:06.138Z,17.17
2022-11-24T05:39:33.687Z,19.75
2022-11-24T05:42:02.253Z,14.05
2022-11-24T05:44:29.806Z,20.13
2022-11-24T05:46:57.389Z,20.02
2022-11-24T05:49:25.002Z,19.42
2022-11-24T05:51:54.076Z,18.77
2022-11-24T05:54:21.552Z,21.77
2022-11-24T05:56:49.199Z,18.67
2022-11-24T05:59:16.709Z,18.00
2022-11-24T06:01:44.262Z,17.60
2022-11-24T06:04:12.008Z,16.42
2022-11-24T06:06:40.061Z,10.93
2022-11-24T06:09:09.013Z,13.63
2022-11-24T06:11:36.589Z,17.55
2022-11-24T06:14:08.321Z,17.13
2022-11-24T06:16:38.670Z,16.02
2022-11-24T06:19:06.258Z,16.25
2022-11-24T06:21:33.799Z,18.20
2022-11-24T06:24:01.495Z,18.23
2022-11-24T06:26:30.511Z,16.55
2022-11-24T06:28:58.101Z,16.25
2022-11-24T06:31:25.738Z,17.63
2022-11-24T06:33:53.240Z,16.17
2022-11-24T06:36:20.853Z,17.40
2022-11-24T06:38:48.336Z,15.65
2022-11-24T06:41:16.433Z,19.80
2022-11-24T06:43:45.429Z,17.30
2022-11-24T06:46:13.070Z,12.90
2022-11-24T06:48:40.604Z,17.60
2022-11-24T06:51:09.357Z,17.40
2022-11-24T06:53:37.443Z,14.90
2022-11-24T06:56:06.693Z,12.80
2022-11-24T06:58:35.863Z,16.98
2022-11-24T07:01:04.935Z,14.13
2022-11-24T07:03:32.661Z,17.40
2022-11-24T07:06:00.361Z,11.35
2022-11-24T07:08:29.019Z,17.50
2022-11-24T07:10:56.531Z,12.50
2022-11-24T07:13:24.053Z,12.82
2022-11-24T07:15:51.573Z,14.07
2022-11-24T07:18:20.571Z,9.88
2022-11-24T07:20:48.204Z,12.15
2022-11-24T07:23:15.771Z,12.48
2022-11-24T07:25:43.358Z,19.65
2022-11-24T07:28:10.936Z,12.05
2022-11-24T07:30:38.500Z,16.38
2022-11-24T07:33:06.106Z,14.05
2022-11-24T07:35:35.176Z,14.23
2022-11-24T07:38:02.727Z,15.75
2022-11-24T07:40:30.322Z,13.40
2022-11-24T07:43:00.191Z,13.63
2022-11-24T07:45:27.888Z,10.63
2022-11-24T07:47:55.509Z,19.40
2022-11-24T07:50:23.125Z,13.00
2022-11-24T07:52:52.269Z,13.65
2022-11-24T07:55:19.720Z,12.48
2022-11-24T07:57:47.284Z,10.07
2022-11-24T08:00:15.315Z,10.27
2022-11-24T08:02:43.939Z,10.57
2022-11-24T08:05:11.516Z,11.02
2022-11-24T08:07:39.103Z,10.45
2022-11-24T08:10:09.648Z,9.18
2022-11-24T08:12:37.119Z,11.90
2022-11-24T08:15:10.915Z,10.93
2022-11-24T08:17:39.094Z,8.52
2022-11-24T08:20:08.609Z,12.52
2022-11-24T08:22:36.233Z,6.35
2022-11-24T08:25:03.914Z,9.20
2022-11-24T08:27:32.900Z,10.60
2022-11-24T08:30:00.465Z,8.05
2022-11-24T08:32:28.171Z,10.10
2022-11-24T08:34:59.611Z,8.20
2022-11-24T08:37:36.688Z,9.13
2022-11-24T08:40:04.842Z,7.45
2022-11-24T08:42:33.859Z,6.80
2022-11-24T08:45:17.475Z,8.07
2022-11-24T08:47:52.562Z,6.30
2022-11-24T08:50:20.309Z,8.52
2022-11-24T08:52:47.844Z,8.43
2022-11-24T08:55:15.522Z,7.75
2022-11-24T08:57:44.514Z,10.45
2022-11-24T09:00:14.075Z,9.95
2022-11-24T09:02:41.666Z,12.20
2022-11-24T09:05:28.839Z,8.77
2022-11-24T09:07:57.224Z,8.75
2022-11-24T09:10:24.823Z,7.20
2022-11-24T09:12:53.965Z,10.73
2022-11-24T09:15:21.444Z,5.03
2022-11-24T09:17:49.023Z,5.32
2022-11-24T09:20:17.323Z,2.72
2022-11-24T09:22:44.914Z,3.13
2022-11-24T09:25:12.504Z,3.65
2022-11-24T09:27:40.001Z,4.30
2022-11-24T09:30:11.381Z,2.60
2022-11-24T09:32:38.894Z,4.68
2022-11-24T09:35:06.917Z,3.70
2022-11-24T09:37:34.532Z,3.30
2022-11-24T09:40:02.068Z,3.33
2022-11-24T09:42:36.940Z,6.13
2022-11-24T09:45:14.762Z,8.95
2022-11-24T09:47:55.526Z,6.65
2022-11-24T09:50:23.986Z,6.95
2022-11-24T09:52:54.056Z,8.43
2022-11-24T09:55:42.537Z,7.80
2022-11-24T09:58:29.958Z,9.15
2022-11-24T10:00:59.032Z,7.90
2022-11-24T10:03:28.211Z,11.40
2022-11-24T10:05:55.800Z,6.57
2022-11-24T10:08:31.057Z,9.23
2022-11-24T10:10:59.612Z,8.95
2022-11-24T10:13:39.176Z,9.32
2022-11-24T10:16:11.335Z,10.15
2022-11-24T10:18:45.707Z,8.98
2022-11-24T10:21:34.681Z,17.52
2022-11-24T10:24:19.677Z,14.93
2022-11-24T10:26:51.213Z,12.25
2022-11-24T10:29:21.499Z,17.45
2022-11-24T10:31:52.228Z,10.25
2022-11-24T10:34:23.046Z,12.68
2022-11-24T10:36:54.550Z,13.45
2022-11-24T10:39:23.800Z,10.73
2022-11-24T10:41:53.101Z,9.38
2022-11-24T10:44:20.662Z,17.50
2022-11-24T10:46:49.884Z,11.75
2022-11-24T10:49:19.620Z,12.68
2022-11-24T10:52:05.768Z,13.23
2022-11-24T10:54:33.348Z,10.63
2022-11-24T10:57:00.956Z,11.45
2022-11-24T10:59:34.893Z,10.45
2022-11-24T11:02:09.646Z,9.73
2022-11-24T11:04:37.485Z,12.43
2022-11-24T11:07:18.298Z,16.58
2022-11-24T11:09:46.032Z,14.18
2022-11-24T11:12:42.823Z,13.43
2022-11-24T11:15:32.092Z,13.05
2022-11-24T11:18:01.273Z,11.45
2022-11-24T11:20:30.564Z,14.98
2022-11-24T11:22:59.728Z,12.15
2022-11-24T11:25:30.644Z,13.85
2022-11-24T11:28:26.884Z,13.55
2022-11-24T11:31:18.974Z,13.68
2022-11-24T11:34:04.252Z,11.65
2022-11-24T11:36:33.804Z,11.05
2022-11-24T11:39:01.387Z,17.08
2022-11-24T11:41:32.956Z,10.02
2022-11-24T11:44:15.497Z,16.02
2022-11-24T11:46:43.174Z,13.35
2022-11-24T11:49:13.116Z,21.77
2022-11-24T11:51:48.559Z,13.80
2022-11-24T11:54:21.884Z,15.40
2022-11-24T11:56:50.756Z,11.27
2022-11-24T11:59:48.313Z,9.95
2022-11-24T12:02:52.923Z,14.85
2022-11-24T12:05:28.179Z,14.80
2022-11-24T12:08:10.807Z,16.88
2022-11-24T12:10:42.236Z,12.25
2022-11-24T12:13:34.466Z,10.55
2022-11-24T12:16:07.620Z,10.45
2022-11-24T12:18:58.770Z,11.47
2022-11-24T12:21:32.152Z,11.55
2022-11-24T12:24:08.664Z,6.60
2022-11-24T12:26:40.775Z,11.30
2022-11-24T12:29:38.070Z,12.48
2022-11-24T12:32:10.565Z,11.43
2022-11-24T12:34:44.550Z,11.32
2022-11-24T12:39:59.555Z,8.77
2022-11-24T12:42:32.848Z,11.77
2022-11-24T12:45:13.294Z,8.60
2022-11-24T12:47:59.976Z,10.88
2022-11-24T12:50:28.380Z,12.38
2022-11-24T12:52:58.996Z,11.85
2022-11-24T12:55:28.992Z,9.20
2022-11-24T12:57:59.827Z,9.10
2022-11-24T13:00:30.312Z,12.98
2022-11-24T13:03:12.510Z,9.45
2022-11-24T13:05:46.358Z,11.82
2022-11-24T13:08:14.309Z,11.15
2022-11-24T13:10:58.579Z,13.10
2022-11-24T13:13:29.835Z,12.02
2022-11-24T13:21:53.422Z,11.85
2022-11-24T13:24:26.273Z,11.60
2022-11-24T13:27:16.345Z,11.30
2022-11-24T13:29:44.064Z,14.10
2022-11-24T13:32:50.804Z,11.80
2022-11-24T13:35:18.519Z,13.55
2022-11-24T13:37:48.330Z,14.98
2022-11-24T13:40:54.170Z,11.23
2022-11-24T13:43:29.586Z,15.00
2022-11-24T13:45:57.291Z,11.48
2022-11-24T13:48:53.168Z,13.15
2022-11-24T13:51:24.386Z,12.10
2022-11-24T13:53:51.940Z,9.90
2022-11-24T13:56:36.959Z,9.65
2022-11-24T13:59:15.971Z,10.52
2022-11-24T14:01:43.659Z,9.25
2022-11-24T14:04:34.016Z,11.27
2022-11-24T14:07:07.774Z,7.10
2022-11-24T14:09:37.498Z,10.57
2022-11-24T14:12:08.655Z,10.98
2022-11-24T14:14:37.941Z,12.40
2022-11-24T14:17:13.731Z,11.55
2022-11-24T14:19:43.727Z,12.40
2022-11-24T14:22:15.980Z,12.48
2022-11-24T14:24:43.757Z,12.50
2022-11-24T14:27:14.511Z,9.43
2022-11-24T14:32:38.114Z,11.82
2022-11-24T14:35:21.323Z,13.07
2022-11-24T14:37:49.248Z,12.82
2022-11-24T14:40:38.368Z,15.85
2022-11-24T14:43:13.717Z,15.45
2022-11-24T14:45:53.855Z,15.07
2022-11-24T14:48:26.239Z,16.15
2022-11-24T14:50:54.010Z,18.75
2022-11-24T14:53:26.034Z,23.73
2022-11-24T14:56:08.703Z,18.92
2022-11-24T14:58:41.802Z,27.02
2022-11-24T15:01:11.738Z,31.58
2022-11-24T15:03:40.670Z,22.35
2022-11-24T15:06:15.976Z,24.75
2022-11-24T15:08:45.130Z,16.75
2022-11-24T15:11:12.830Z,22.70
2022-11-24T15:13:40.327Z,22.88
2022-11-24T15:16:09.468Z,17.35
2022-11-24T15:18:41.360Z,28.80
2022-11-24T15:21:11.677Z,23.77
2022-11-24T15:23:42.267Z,24.17
2022-11-24T15:26:30.580Z,26.67
2022-11-24T15:28:59.759Z,88.07
2022-11-24T15:31:27.419Z,105.43
2022-11-24T15:33:56.318Z,74.72
2022-11-24T15:36:23.873Z,102.88
2022-11-24T15:38:54.255Z,95.03
2022-11-24T15:41:24.169Z,262.98
2022-11-24T15:43:51.780Z,246.68
2022-11-24T15:46:19.191Z,286.17
2022-11-24T15:48:53.326Z,156.77
2022-11-24T15:51:23.208Z,130.65
2022-11-24T15:54:00.047Z,137.50
2022-11-24T15:56:35.316Z,119.75
2022-11-24T15:59:02.858Z,110.68
2022-11-24T16:01:31.860Z,87.25
2022-11-24T16:03:59.360Z,82.55
2022-11-24T16:06:28.344Z,63.42
2022-11-24T16:08:55.722Z,70.60
2022-11-24T16:11:25.548Z,94.72
2022-11-24T16:13:54.215Z,68.93
2022-11-24T16:16:22.002Z,52.35
2022-11-24T16:18:49.720Z,55.88
2022-11-24T16:21:17.282Z,49.20
2022-11-24T16:23:46.343Z,42.33
2022-11-24T16:26:13.697Z,38.17
2022-11-24T16:28:41.168Z,35.75
2022-11-24T16:31:09.037Z,49.00
2022-11-24T16:33:36.670Z,37.83
2022-11-24T16:36:04.733Z,33.00
2022-11-24T16:38:32.358Z,36.38
2022-11-24T16:41:05.284Z,33.03
2022-11-24T16:43:32.982Z,37.80
2022-11-24T16:46:05.180Z,31.67
2022-11-24T16:48:35.718Z,34.45
2022-11-24T16:51:06.045Z,38.00
2022-11-24T16:53:33.397Z,34.70
2022-11-24T16:56:02.686Z,32.00
2022-11-24T16:58:30.449Z,30.15
2022-11-24T17:01:03.826Z,39.83
2022-11-24T17:03:31.611Z,32.50
2022-11-24T17:05:59.763Z,33.33
2022-11-24T17:08:27.256Z,30.20
2022-11-24T17:10:54.626Z,25.92
2022-11-24T17:13:23.406Z,29.17
2022-11-24T17:15:54.507Z,24.80
2022-11-24T17:18:25.502Z,32.20
2022-11-24T17:20:53.308Z,34.95
2022-11-24T17:23:20.628Z,25.58
2022-11-24T17:25:48.528Z,31.58
2022-11-24T17:28:15.946Z,25.58
2022-11-24T17:30:45.730Z,47.10
2022-11-24T17:33:13.053Z,65.60
2022-11-24T17:35:40.620Z,37.90
2022-11-24T17:38:09.671Z,30.52
2022-11-24T17:40:37.003Z,35.63
2022-11-24T17:43:04.338Z,31.10
2022-11-24T17:45:31.695Z,22.45
2022-11-24T17:48:00.772Z,31.13
2022-11-24T17:50:28.488Z,26.00
2022-11-24T17:52:55.855Z,21.80
2022-11-24T17:55:23.411Z,24.60
2022-11-24T17:57:50.765Z,22.27
2022-11-24T18:00:19.136Z,40.63
2022-11-24T18:02:46.579Z,21.42
2022-11-24T18:05:15.824Z,22.90
2022-11-24T18:07:43.206Z,25.15
2022-11-24T18:10:11.489Z,91.25
2022-11-24T18:12:38.808Z,135.07
2022-11-24T18:15:07.494Z,117.63
2022-11-24T18:17:34.873Z,111.97
2022-11-24T18:20:02.473Z,79.78
2022-11-24T18:22:57.858Z,66.00
2022-11-24T18:25:18.903Z,60.92
2022-11-24T18:27:46.290Z,61.75
2022-11-24T18:30:14.106Z,85.22
2022-11-24T18:32:41.510Z,70.78
2022-11-24T18:35:09.688Z,70.75
2022-11-24T18:37:38.768Z,48.08
2022-11-24T18:40:08.284Z,63.63
2022-11-24T18:42:35.788Z,108.72
2022-11-24T18:45:03.583Z,143.45
2022-11-24T18:47:30.912Z,123.50
2022-11-24T18:49:58.493Z,97.88
2022-11-24T18:52:26.147Z,60.97
2022-11-24T18:54:55.176Z,89.78
2022-11-24T18:57:22.633Z,146.85
2022-11-24T18:59:50.062Z,170.43
2022-11-24T19:02:17.462Z,142.35
2022-11-24T19:04:44.843Z,80.55
2022-11-24T19:07:12.209Z,53.05
2022-11-24T19:09:39.541Z,45.15
2022-11-24T19:12:10.402Z,61.42
2022-11-24T19:14:38.472Z,62.22
2022-11-24T19:17:05.935Z,61.40
2022-11-24T19:19:33.530Z,36.13
2022-11-24T19:22:01.224Z,43.22
2022-11-24T19:24:28.995Z,45.50
2022-11-24T19:26:56.610Z,42.13
2022-11-24T19:29:25.526Z,37.58
2022-11-24T19:31:54.823Z,36.90
2022-11-24T19:34:22.485Z,34.35
2022-11-24T19:36:50.025Z,38.40
2022-11-24T19:39:17.473Z,45.92
2022-11-24T19:41:44.954Z,27.67
2022-11-24T19:44:12.579Z,21.30
2022-11-24T19:46:41.393Z,31.85
2022-11-24T19:49:08.847Z,27.98
2022-11-24T19:51:37.566Z,31.27
2022-11-24T19:54:06.166Z,28.80
2022-11-24T19:56:35.108Z,21.65
2022-11-24T19:59:02.756Z,45.50
2022-11-24T20:01:30.895Z,44.25
2022-11-24T20:04:00.530Z,56.63
2022-11-24T20:06:28.424Z,55.97
2022-11-24T20:08:56.741Z,108.63
2022-11-24T20:11:24.094Z,71.93
2022-11-24T20:13:51.457Z,64.63
2022-11-24T20:16:19.948Z,47.35
2022-11-24T20:18:47.836Z,29.98
2022-11-24T20:21:17.565Z,31.92
2022-11-24T20:23:46.150Z,115.68
2022-11-24T20:26:14.196Z,47.17
2022-11-24T20:28:41.759Z,133.88
2022-11-24T20:31:10.115Z,290.85
2022-11-24T20:33:37.685Z,230.10
2022-11-24T20:36:05.614Z,174.10
2022-11-24T20:38:34.423Z,139.60
2022-11-24T20:41:08.789Z,158.63
2022-11-24T20:43:37.030Z,115.15
2022-11-24T20:46:04.928Z,93.60
2022-11-24T20:48:33.428Z,83.25
2022-11-24T20:51:03.956Z,70.82
2022-11-24T20:53:33.024Z,72.13
2022-11-24T20:56:06.028Z,74.75
2022-11-24T20:58:34.327Z,89.65
2022-11-24T21:01:06.245Z,90.35
2022-11-24T21:03:36.215Z,60.47
2022-11-24T21:06:07.737Z,67.53
2022-11-24T21:08:37.548Z,55.08
2022-11-24T21:11:05.376Z,52.38
2022-11-24T21:13:33.061Z,61.20
2022-11-24T21:16:00.763Z,72.35
2022-11-24T21:18:28.299Z,65.72
2022-11-24T21:20:55.724Z,55.58
2022-11-24T21:23:23.252Z,62.85
2022-11-24T21:25:52.250Z,51.13
2022-11-24T21:28:19.896Z,50.83
2022-11-24T21:30:47.355Z,39.72
2022-11-24T21:33:14.743Z,45.42
2022-11-24T21:35:42.330Z,33.30
2022-11-24T21:38:09.926Z,33.13
2022-11-24T21:40:37.500Z,35.30
2022-11-24T21:43:06.315Z,31.02
2022-11-24T21:45:34.790Z,23.90
2022-11-24T21:48:02.141Z,25.45
2022-11-24T21:50:29.443Z,19.63
2022-11-24T21:53:00.639Z,18.73
2022-11-24T21:55:30.889Z,21.35
2022-11-24T21:57:58.375Z,15.70
2022-11-24T22:00:27.412Z,14.93
2022-11-24T22:02:55.119Z,17.55
2022-11-24T22:05:22.402Z,21.08
2022-11-24T22:07:49.737Z,35.70
2022-11-24T22:10:17.406Z,29.80
2022-11-24T22:12:44.724Z,20.70
2022-11-24T22:15:12.104Z,22.33
2022-11-24T22:17:41.096Z,19.60
2022-11-24T22:20:09.367Z,19.90
2022-11-24T22:22:36.672Z,14.15
2022-11-24T22:25:04.446Z,17.00
2022-11-24T22:27:31.732Z,20.88
2022-11-24T22:29:58.976Z,15.15
2022-11-24T22:32:26.268Z,18.10
2022-11-24T22:34:55.002Z,10.77
2022-11-24T22:37:22.347Z,14.30
2022-11-24T22:39:49.662Z,17.30
2022-11-24T22:42:16.927Z,18.10
2022-11-24T22:44:44.166Z,11.27
2022-11-24T22:47:11.554Z,13.13
2022-11-24T22:49:38.797Z,8.20
2022-11-24T22:52:07.505Z,10.90
2022-11-24T22:54:35.039Z,10.23
2022-11-24T22:57:02.679Z,10.65
2022-11-24T22:59:30.050Z,7.38
2022-11-24T23:01:57.382Z,10.27
2022-11-24T23:04:24.750Z,8.35
2022-11-24T23:06:52.073Z,12.70
2022-11-24T23:09:20.798Z,12.27
2022-11-24T23:11:48.032Z,9.70
2022-11-24T23:14:15.607Z,15.05
2022-11-24T23:16:42.978Z,11.55
2022-11-24T23:19:10.593Z,15.65
2022-11-24T23:21:38.246Z,16.65
2022-11-24T23:24:06.995Z,9.60
2022-11-24T23:26:36.879Z,11.50
2022-11-24T23:29:04.309Z,9.18
2022-11-24T23:31:31.620Z,10.00
2022-11-24T23:33:59.279Z,16.98
2022-11-24T23:36:26.476Z,14.20
2022-11-24T23:38:53.718Z,13.77
2022-11-24T23:41:21.903Z,10.73
2022-11-24T23:43:50.644Z,3.97
2022-11-24T23:46:18.528Z,8.93
2022-11-24T23:48:45.852Z,7.28
2022-11-24T23:51:13.743Z,5.05
2022-11-24T23:53:41.064Z,6.95
2022-11-24T23:56:08.401Z,19.40
2022-11-24T23:58:35.585Z,10.02
